Time;durP1;ratioP1;P1;durP2;ratioP2;P2;SDS_P1;SDS_P2;PMS_P1;PMS_P2;Temp;Humidity;BMP_temperature;BMP_pressure;BME280_temperature;BME280_humidity;BME280_pressure;Samples;Min_cycle;Max_cycle;Signal;HPM_P1;HPM_P2
2023/05/24 00:01:45;;;;;;;15.45;13.85;;;17.60;99.90;;;;;;5073779;28;20039;-62
2023/05/24 00:04:11;;;;;;;14.98;13.43;;;17.60;99.90;;;;;;5073833;28;20032;-63
2023/05/24 00:06:36;;;;;;;15.45;13.88;;;17.60;99.90;;;;;;5073402;28;20021;-62
2023/05/24 00:09:03;;;;;;;15.68;14.07;;;17.50;99.90;;;;;;5073219;28;20032;-62
2023/05/24 00:11:29;;;;;;;15.75;13.50;;;17.50;99.90;;;;;;5073941;28;20036;-62
2023/05/24 00:13:55;;;;;;;15.00;13.50;;;17.50;99.90;;;;;;5073388;28;20057;-62
2023/05/24 00:16:21;;;;;;;15.13;13.70;;;17.60;99.90;;;;;;5073501;28;20033;-63
2023/05/24 00:18:47;;;;;;;15.52;14.02;;;17.60;99.90;;;;;;5073489;28;20475;-62
2023/05/24 00:21:13;;;;;;;15.23;13.73;;;17.60;99.90;;;;;;5073255;28;20544;-62
2023/05/24 00:23:40;;;;;;;15.88;14.38;;;17.60;99.90;;;;;;5073046;28;20020;-62
2023/05/24 00:26:07;;;;;;;15.55;13.93;;;17.50;99.90;;;;;;5073537;28;20052;-62
2023/05/24 00:28:33;;;;;;;15.88;14.27;;;17.50;99.90;;;;;;5073259;28;20495;-62
2023/05/24 00:30:59;;;;;;;15.20;13.68;;;17.50;99.90;;;;;;5084185;28;20110;-62
2023/05/24 00:33:26;;;;;;;15.55;14.07;;;17.50;99.90;;;;;;5093502;28;20027;-62
2023/05/24 00:35:55;;;;;;;16.23;14.57;;;17.50;99.90;;;;;;5093029;28;20056;-63
2023/05/24 00:38:22;;;;;;;16.10;14.50;;;17.40;99.90;;;;;;5092981;28;20021;-62
2023/05/24 00:40:48;;;;;;;16.67;15.07;;;17.40;99.90;;;;;;5093467;28;20145;-62
2023/05/24 00:43:14;;;;;;;16.15;14.55;;;17.40;99.90;;;;;;5093291;28;20095;-62
2023/05/24 00:45:40;;;;;;;16.98;15.27;;;17.40;99.90;;;;;;5093177;28;20111;-63
2023/05/24 00:48:06;;;;;;;18.15;14.45;;;17.30;99.90;;;;;;5092966;28;20020;-63
2023/05/24 00:50:32;;;;;;;16.33;14.63;;;17.30;99.90;;;;;;5092720;28;20048;-62
2023/05/24 00:53:02;;;;;;;16.02;14.50;;;17.30;99.90;;;;;;5093006;28;20024;-62
2023/05/24 00:55:28;;;;;;;17.10;15.32;;;17.30;99.90;;;;;;5093108;28;20059;-63
2023/05/24 00:57:56;;;;;;;16.77;15.05;;;17.20;99.90;;;;;;5092952;28;20020;-62
2023/05/24 01:00:22;;;;;;;16.75;15.15;;;17.20;99.90;;;;;;5092699;28;20028;-62
2023/05/24 01:02:49;;;;;;;16.73;15.02;;;17.20;99.90;;;;;;5092634;28;20074;-62
2023/05/24 01:05:16;;;;;;;16.05;14.45;;;17.10;99.90;;;;;;5092838;28;20035;-62
2023/05/24 01:08:09;;;;;;;17.65;15.55;;;17.10;99.90;;;;;;5092885;28;20027;-63
2023/05/24 01:10:58;;;;;;;17.70;15.18;;;17.10;99.90;;;;;;5092712;28;20036;-62
2023/05/24 01:13:37;;;;;;;16.95;15.35;;;17.00;99.90;;;;;;5092699;28;20032;-63
2023/05/24 01:16:30;;;;;;;16.85;15.13;;;17.00;99.90;;;;;;5092648;28;20024;-63
2023/05/24 01:18:59;;;;;;;18.30;16.25;;;16.90;99.90;;;;;;5087904;28;20518;-62
2023/05/24 01:21:49;;;;;;;18.88;15.77;;;16.90;99.90;;;;;;5092109;28;20459;-63
2023/05/24 01:24:36;;;;;;;17.95;16.17;;;16.90;99.90;;;;;;5092134;28;20085;-63
2023/05/24 01:27:06;;;;;;;18.38;16.40;;;16.80;99.90;;;;;;5092256;28;20517;-62
2023/05/24 01:29:34;;;;;;;18.83;16.92;;;16.80;99.90;;;;;;5092566;28;20440;-62
2023/05/24 01:32:00;;;;;;;17.90;16.10;;;16.80;99.90;;;;;;5072185;28;20036;-62
2023/05/24 01:34:26;;;;;;;18.05;16.35;;;16.80;99.90;;;;;;5071689;28;20031;-62
2023/05/24 01:36:52;;;;;;;18.20;16.30;;;16.70;99.90;;;;;;5071737;28;20048;-62
2023/05/24 01:39:20;;;;;;;17.10;15.32;;;16.70;99.90;;;;;;5071867;28;20092;-63
2023/05/24 01:41:52;;;;;;;17.40;15.60;;;16.70;99.90;;;;;;5071870;28;20135;-63
2023/05/24 01:44:35;;;;;;;17.88;15.98;;;16.60;99.90;;;;;;5072066;28;20044;-62
2023/05/24 01:47:27;;;;;;;17.95;16.08;;;16.60;99.90;;;;;;5071046;28;20048;-62
2023/05/24 01:50:06;;;;;;;17.67;15.88;;;16.60;99.90;;;;;;5070156;28;20085;-62
2023/05/24 01:52:34;;;;;;;16.70;15.10;;;16.60;99.90;;;;;;5071472;28;20052;-63
2023/05/24 01:55:02;;;;;;;17.95;16.08;;;16.60;99.90;;;;;;5071388;28;20044;-62
2023/05/24 01:57:29;;;;;;;17.23;15.52;;;16.60;99.90;;;;;;5071388;28;20031;-61
2023/05/24 01:59:57;;;;;;;19.38;15.52;;;16.60;99.90;;;;;;5071653;28;20028;-63
2023/05/24 02:02:23;;;;;;;19.85;15.70;;;16.60;99.90;;;;;;5071007;28;20021;-62
2023/05/24 02:04:49;;;;;;;17.45;15.75;;;16.50;99.90;;;;;;5071167;28;20461;-62
2023/05/24 02:07:16;;;;;;;17.63;15.93;;;16.50;99.90;;;;;;5071402;28;20028;-63
2023/05/24 02:09:41;;;;;;;17.33;15.55;;;16.50;99.90;;;;;;5071736;28;20021;-62
2023/05/24 02:12:08;;;;;;;18.00;16.13;;;16.40;99.90;;;;;;5071120;28;20514;-63
2023/05/24 02:14:36;;;;;;;17.85;15.95;;;16.40;99.90;;;;;;5070048;28;20021;-62
2023/05/24 02:17:03;;;;;;;17.88;16.17;;;16.40;99.90;;;;;;5070728;28;20032;-62
2023/05/24 02:19:28;;;;;;;17.70;15.93;;;16.30;99.90;;;;;;5070665;28;20017;-62
2023/05/24 02:21:54;;;;;;;17.15;15.35;;;16.30;99.90;;;;;;5071144;28;20376;-61
2023/05/24 02:24:20;;;;;;;17.40;15.60;;;16.30;99.90;;;;;;5071536;28;20158;-62
2023/05/24 02:26:45;;;;;;;16.85;15.15;;;16.30;99.90;;;;;;5071263;28;20037;-61
2023/05/24 02:29:11;;;;;;;16.77;15.18;;;16.20;99.90;;;;;;5071159;28;20471;-63
2023/05/24 02:31:37;;;;;;;16.85;15.23;;;16.20;99.90;;;;;;5087029;28;20044;-62
2023/05/24 02:34:02;;;;;;;19.40;15.90;;;16.20;99.90;;;;;;5091339;28;20475;-62
2023/05/24 02:36:28;;;;;;;17.30;15.50;;;16.20;99.90;;;;;;5091040;28;20411;-62
2023/05/24 02:38:55;;;;;;;16.17;14.48;;;16.10;99.90;;;;;;5091270;28;20479;-63
2023/05/24 02:41:21;;;;;;;16.55;14.90;;;16.10;99.90;;;;;;5091674;28;20063;-62
2023/05/24 02:43:47;;;;;;;16.17;14.48;;;16.10;99.90;;;;;;5091193;28;20032;-63
2023/05/24 02:46:14;;;;;;;16.02;14.52;;;16.00;99.90;;;;;;5091037;28;20036;-62
2023/05/24 02:48:40;;;;;;;17.20;15.35;;;16.00;99.90;;;;;;5090883;28;20031;-62
2023/05/24 02:51:05;;;;;;;15.60;14.00;;;16.00;99.90;;;;;;5091251;28;20043;-62
2023/05/24 02:53:31;;;;;;;15.50;14.02;;;16.00;99.90;;;;;;5091160;28;20030;-61
2023/05/24 02:55:58;;;;;;;15.45;13.95;;;16.00;99.90;;;;;;5091278;28;20081;-62
2023/05/24 02:58:24;;;;;;;16.70;15.10;;;16.00;99.90;;;;;;5091411;28;20028;-62
2023/05/24 03:00:50;;;;;;;16.23;14.55;;;16.00;99.90;;;;;;5091048;28;20035;-63
2023/05/24 03:03:15;;;;;;;16.80;15.00;;;15.90;99.90;;;;;;5090788;28;20024;-62
2023/05/24 03:05:41;;;;;;;16.35;14.65;;;15.90;99.90;;;;;;5091338;28;20048;-62
2023/05/24 03:08:07;;;;;;;16.10;14.40;;;15.90;99.90;;;;;;5089669;28;20408;-62
2023/05/24 03:10:33;;;;;;;15.23;13.55;;;15.90;99.90;;;;;;5090755;28;20024;-62
2023/05/24 03:12:59;;;;;;;16.58;14.98;;;15.90;99.90;;;;;;5090796;28;20031;-62
2023/05/24 03:15:24;;;;;;;15.88;14.45;;;15.90;99.90;;;;;;5093267;28;20476;-62
2023/05/24 03:17:50;;;;;;;16.20;14.60;;;15.90;99.90;;;;;;5094496;28;20028;-62
2023/05/24 03:20:17;;;;;;;15.73;14.20;;;15.80;99.90;;;;;;5094680;28;20043;-62
2023/05/24 03:22:42;;;;;;;15.13;13.57;;;15.80;99.90;;;;;;5095004;28;20020;-62
2023/05/24 03:25:09;;;;;;;15.88;14.40;;;15.90;99.90;;;;;;5095168;28;20389;-61
2023/05/24 03:27:35;;;;;;;15.20;13.80;;;15.90;99.90;;;;;;5094584;28;20061;-62
2023/05/24 03:30:01;;;;;;;16.40;14.90;;;15.90;99.90;;;;;;5091640;28;20035;-62
2023/05/24 03:32:27;;;;;;;15.77;14.38;;;15.90;99.90;;;;;;5073670;28;20441;-63
2023/05/24 03:34:53;;;;;;;15.43;13.93;;;15.90;99.90;;;;;;5074534;28;20031;-62
2023/05/24 03:37:18;;;;;;;14.55;13.25;;;15.90;99.90;;;;;;5074280;28;20102;-62
2023/05/24 03:39:44;;;;;;;14.60;13.10;;;15.90;99.90;;;;;;5074264;28;20506;-62
2023/05/24 03:42:10;;;;;;;14.57;13.13;;;15.90;99.90;;;;;;5073954;28;20100;-62
2023/05/24 03:44:37;;;;;;;15.38;14.05;;;16.00;99.90;;;;;;5073890;28;20034;-65
2023/05/24 03:47:03;;;;;;;15.68;14.07;;;16.00;99.90;;;;;;5074107;28;20051;-62
2023/05/24 03:49:29;;;;;;;14.82;13.35;;;15.90;99.90;;;;;;5074393;28;20024;-62
2023/05/24 03:51:54;;;;;;;14.15;12.85;;;15.90;99.90;;;;;;5072525;28;20587;-61
2023/05/24 03:54:20;;;;;;;15.13;13.82;;;15.90;99.90;;;;;;5073845;28;20094;-62
2023/05/24 03:56:46;;;;;;;14.68;13.27;;;15.90;99.90;;;;;;5073730;28;20525;-62
2023/05/24 03:59:11;;;;;;;14.65;13.27;;;15.90;99.90;;;;;;5073515;28;20104;-62
2023/05/24 04:01:38;;;;;;;15.52;13.13;;;15.90;99.90;;;;;;5073692;28;20491;-62
2023/05/24 04:04:03;;;;;;;15.30;13.70;;;15.90;99.90;;;;;;5073726;28;20020;-63
2023/05/24 04:06:29;;;;;;;14.43;13.02;;;15.90;99.90;;;;;;5073969;28;20035;-62
2023/05/24 04:08:56;;;;;;;15.45;14.00;;;15.90;99.90;;;;;;5073365;28;20032;-62
2023/05/24 04:11:22;;;;;;;16.23;13.60;;;15.90;99.90;;;;;;5073652;28;20037;-62
2023/05/24 04:13:51;;;;;;;15.55;14.10;;;15.90;99.90;;;;;;5073175;28;20025;-62
2023/05/24 04:16:17;;;;;;;15.20;13.80;;;15.90;99.90;;;;;;5073490;28;20368;-62
2023/05/24 04:18:44;;;;;;;14.80;13.32;;;15.90;99.90;;;;;;5073614;28;20070;-62
2023/05/24 04:21:10;;;;;;;14.85;13.45;;;15.90;99.90;;;;;;5073274;28;20086;-63
2023/05/24 04:23:35;;;;;;;14.50;13.10;;;15.90;99.90;;;;;;5073878;28;20759;-62
2023/05/24 04:26:01;;;;;;;15.25;13.80;;;16.00;99.90;;;;;;5072680;28;20028;-62
2023/05/24 04:28:27;;;;;;;15.13;13.63;;;16.00;99.90;;;;;;5072877;28;20387;-62
2023/05/24 04:30:53;;;;;;;14.80;13.30;;;16.00;99.90;;;;;;5073046;28;20447;-62
2023/05/24 04:33:19;;;;;;;14.50;13.13;;;16.00;99.90;;;;;;5073186;28;20078;-63
2023/05/24 04:35:46;;;;;;;14.10;12.90;;;16.00;99.90;;;;;;5072967;28;20516;-62
2023/05/24 04:38:13;;;;;;;13.52;12.25;;;16.00;99.90;;;;;;5073014;28;20063;-62
2023/05/24 04:40:38;;;;;;;15.05;12.43;;;16.00;99.90;;;;;;5073148;28;20502;-62
2023/05/24 04:43:06;;;;;;;14.38;12.93;;;16.00;99.90;;;;;;5072914;28;20013;-62
2023/05/24 04:45:32;;;;;;;14.88;13.38;;;16.00;99.90;;;;;;5073106;28;20053;-62
2023/05/24 04:47:58;;;;;;;14.07;12.73;;;16.00;99.90;;;;;;5072908;28;20028;-62
2023/05/24 04:50:24;;;;;;;14.02;12.50;;;16.00;99.90;;;;;;5072660;28;20032;-62
2023/05/24 04:52:50;;;;;;;12.57;11.38;;;16.00;99.90;;;;;;5072749;28;20044;-62
2023/05/24 04:55:16;;;;;;;14.90;12.30;;;16.00;99.90;;;;;;5072702;28;20104;-62
2023/05/24 04:57:41;;;;;;;13.85;12.50;;;16.10;99.90;;;;;;5072358;28;20031;-62
2023/05/24 05:00:09;;;;;;;13.77;12.52;;;16.00;99.90;;;;;;5072938;28;20418;-62
2023/05/24 05:02:34;;;;;;;13.02;11.82;;;16.00;99.90;;;;;;5072746;28;20032;-62
2023/05/24 05:05:00;;;;;;;13.57;12.32;;;16.10;99.90;;;;;;5072786;28;20082;-63
2023/05/24 05:07:26;;;;;;;13.88;12.27;;;16.10;99.90;;;;;;5072913;28;20070;-63
2023/05/24 05:09:51;;;;;;;13.15;11.85;;;16.10;99.90;;;;;;5072321;28;20052;-63
2023/05/24 05:12:17;;;;;;;14.40;12.98;;;16.10;99.90;;;;;;5072062;28;20483;-63
2023/05/24 05:14:43;;;;;;;13.38;12.18;;;16.10;99.90;;;;;;5072327;28;20017;-63
2023/05/24 05:17:08;;;;;;;14.68;13.27;;;16.10;99.90;;;;;;5072379;28;20042;-63
2023/05/24 05:19:34;;;;;;;14.23;12.93;;;16.10;99.90;;;;;;5072172;28;20103;-63
2023/05/24 05:22:00;;;;;;;12.90;11.70;;;16.10;99.90;;;;;;5072556;28;20039;-62
2023/05/24 05:24:26;;;;;;;13.35;11.95;;;16.20;99.90;;;;;;5071981;28;20037;-63
2023/05/24 05:26:52;;;;;;;14.05;12.65;;;16.20;99.90;;;;;;5071738;28;20047;-63
2023/05/24 05:29:17;;;;;;;13.48;12.27;;;16.20;99.90;;;;;;5072358;28;20055;-62
2023/05/24 05:31:43;;;;;;;12.98;11.70;;;16.20;99.90;;;;;;5089121;28;20075;-63
2023/05/24 05:34:09;;;;;;;13.98;12.27;;;16.30;99.90;;;;;;5092171;28;20029;-62
2023/05/24 05:36:39;;;;;;;14.23;12.20;;;16.30;99.90;;;;;;5091899;28;20726;-62
2023/05/24 05:39:09;;;;;;;13.27;12.07;;;16.40;99.90;;;;;;5091551;28;20032;-63
2023/05/24 05:41:38;;;;;;;12.88;11.68;;;16.40;99.90;;;;;;5091987;28;20032;-62
2023/05/24 05:44:05;;;;;;;12.93;11.73;;;16.40;99.90;;;;;;5092022;28;20054;-63
2023/05/24 05:46:31;;;;;;;13.32;12.15;;;16.30;99.90;;;;;;5092052;28;20032;-63
2023/05/24 05:48:57;;;;;;;13.35;12.05;;;16.50;99.90;;;;;;5091949;28;20383;-63
2023/05/24 05:51:22;;;;;;;12.55;11.45;;;16.50;99.90;;;;;;5091626;28;20115;-62
2023/05/24 05:53:48;;;;;;;12.95;11.63;;;16.50;99.90;;;;;;5091841;28;20472;-62
2023/05/24 05:56:14;;;;;;;13.18;11.85;;;16.50;99.90;;;;;;5091561;28;20028;-62
2023/05/24 05:58:40;;;;;;;14.55;12.82;;;16.50;99.90;;;;;;5092079;28;20027;-62
2023/05/24 06:01:05;;;;;;;12.93;11.50;;;16.50;99.90;;;;;;5091697;28;20036;-62
2023/05/24 06:03:31;;;;;;;12.43;11.20;;;16.60;99.90;;;;;;5091570;28;20030;-62
2023/05/24 06:05:57;;;;;;;12.75;11.65;;;16.60;99.90;;;;;;5091620;28;20077;-62
2023/05/24 06:08:22;;;;;;;12.70;11.45;;;16.50;99.90;;;;;;5091383;28;20020;-61
2023/05/24 06:10:48;;;;;;;12.75;11.52;;;16.60;99.90;;;;;;5091153;28;20035;-61
2023/05/24 06:13:14;;;;;;;13.60;11.57;;;16.60;99.90;;;;;;5091524;28;20032;-62
2023/05/24 06:15:39;;;;;;;12.88;11.48;;;16.70;99.90;;;;;;5091761;28;20024;-62
2023/05/24 06:18:06;;;;;;;13.05;11.70;;;16.70;99.90;;;;;;5091485;28;20099;-62
2023/05/24 06:20:31;;;;;;;12.95;11.75;;;16.70;99.90;;;;;;5091354;28;20103;-62
2023/05/24 06:22:57;;;;;;;14.55;11.57;;;16.70;99.90;;;;;;5091325;28;20110;-62
2023/05/24 06:25:23;;;;;;;13.27;11.60;;;16.70;99.90;;;;;;5091167;28;20020;-62
2023/05/24 06:27:52;;;;;;;12.15;10.88;;;16.70;99.90;;;;;;5090074;28;20756;-63
2023/05/24 06:30:17;;;;;;;11.52;10.52;;;16.70;99.90;;;;;;5085486;28;20047;-62
2023/05/24 06:32:43;;;;;;;12.27;11.18;;;16.70;99.90;;;;;;5071471;28;20437;-63
2023/05/24 06:35:09;;;;;;;12.48;11.20;;;16.70;99.90;;;;;;5070991;28;20047;-62
2023/05/24 06:37:35;;;;;;;12.90;11.70;;;16.80;99.90;;;;;;5071037;28;20802;-61
2023/05/24 06:40:00;;;;;;;12.20;11.00;;;16.90;99.90;;;;;;5070599;28;20033;-62
2023/05/24 06:42:26;;;;;;;11.30;10.23;;;16.90;99.90;;;;;;5071015;28;20112;-63
2023/05/24 06:44:52;;;;;;;11.88;10.75;;;17.00;99.90;;;;;;5070944;28;20025;-62
2023/05/24 06:47:17;;;;;;;11.10;10.00;;;16.90;99.90;;;;;;5071024;28;20028;-62
2023/05/24 06:49:43;;;;;;;11.38;10.27;;;16.90;99.90;;;;;;5073988;28;20024;-63
2023/05/24 06:52:09;;;;;;;11.48;10.30;;;16.90;99.90;;;;;;5074730;28;20411;-63
2023/05/24 06:54:35;;;;;;;11.20;10.20;;;16.90;99.90;;;;;;5074855;28;20121;-62
2023/05/24 06:57:02;;;;;;;11.75;10.60;;;16.90;99.90;;;;;;5075385;28;20457;-62
2023/05/24 06:59:28;;;;;;;10.85;9.73;;;16.90;99.90;;;;;;5074923;28;20017;-63
2023/05/24 07:01:56;;;;;;;11.07;9.82;;;17.00;99.90;;;;;;5074907;28;20093;-62
2023/05/24 07:04:23;;;;;;;10.98;9.98;;;17.10;99.90;;;;;;5074761;28;20032;-62
2023/05/24 07:06:50;;;;;;;11.23;10.13;;;17.10;99.90;;;;;;5075109;28;20039;-62
2023/05/24 07:09:16;;;;;;;11.50;10.15;;;17.10;99.90;;;;;;5074600;28;20021;-62
2023/05/24 07:11:42;;;;;;;11.63;10.48;;;17.10;99.90;;;;;;5074473;28;20028;-62
2023/05/24 07:14:08;;;;;;;11.07;9.98;;;17.00;99.90;;;;;;5074603;28;20027;-61
2023/05/24 07:16:33;;;;;;;10.77;9.77;;;17.10;99.90;;;;;;5075010;28;20033;-63
2023/05/24 07:18:59;;;;;;;12.07;9.65;;;17.20;99.90;;;;;;5074489;28;20035;-62
2023/05/24 07:21:25;;;;;;;10.02;9.02;;;17.20;99.90;;;;;;5074474;28;20036;-62
2023/05/24 07:23:51;;;;;;;10.35;9.25;;;17.20;99.90;;;;;;5074180;28;20442;-62
2023/05/24 07:26:16;;;;;;;10.73;9.63;;;17.20;99.90;;;;;;5075044;28;20390;-62
2023/05/24 07:28:42;;;;;;;10.32;9.25;;;17.30;99.90;;;;;;5074344;28;20680;-62
2023/05/24 07:31:09;;;;;;;10.88;9.63;;;17.20;99.90;;;;;;5086682;28;20020;-62
2023/05/24 07:33:37;;;;;;;10.13;9.13;;;17.20;99.90;;;;;;5094528;28;20410;-62
2023/05/24 07:36:07;;;;;;;13.23;9.05;;;17.30;99.90;;;;;;5094275;28;20052;-62
2023/05/24 07:38:33;;;;;;;10.23;9.07;;;17.30;99.90;;;;;;5094375;28;20106;-62
2023/05/24 07:41:00;;;;;;;9.68;8.30;;;17.40;99.90;;;;;;5094379;28;20135;-62
2023/05/24 07:43:26;;;;;;;10.60;8.45;;;17.50;99.90;;;;;;5094290;28;20028;-63
2023/05/24 07:45:53;;;;;;;9.60;8.70;;;17.50;99.90;;;;;;5094322;28;20501;-63
2023/05/24 07:48:22;;;;;;;9.73;8.73;;;17.50;99.90;;;;;;5094234;28;20497;-62
2023/05/24 07:50:49;;;;;;;10.02;9.02;;;17.60;99.90;;;;;;5094324;28;20039;-63
2023/05/24 07:53:15;;;;;;;10.10;9.05;;;17.60;99.90;;;;;;5093975;28;20024;-62
2023/05/24 07:55:41;;;;;;;10.80;8.68;;;17.60;99.90;;;;;;5094033;28;20039;-62
2023/05/24 07:58:07;;;;;;;9.57;8.57;;;17.60;99.90;;;;;;5094647;28;20020;-63
2023/05/24 08:00:32;;;;;;;9.63;8.63;;;17.60;99.90;;;;;;5093059;28;20559;-62
2023/05/24 08:03:01;;;;;;;10.43;9.13;;;17.70;99.90;;;;;;5093659;28;20028;-63
2023/05/24 08:05:27;;;;;;;10.27;8.95;;;17.70;99.90;;;;;;5093797;28;20494;-63
2023/05/24 08:07:53;;;;;;;9.07;8.18;;;17.80;99.90;;;;;;5093550;28;20036;-63
2023/05/24 08:10:20;;;;;;;9.25;8.35;;;17.80;99.90;;;;;;5093718;28;20085;-62
2023/05/24 08:12:46;;;;;;;9.38;8.35;;;17.80;99.90;;;;;;5094170;28;20036;-63
2023/05/24 08:15:12;;;;;;;9.60;8.57;;;17.80;99.90;;;;;;5093710;28;20039;-63
2023/05/24 08:17:38;;;;;;;9.52;8.23;;;17.90;99.90;;;;;;5093504;28;20478;-62
2023/05/24 08:20:13;;;;;;;9.52;8.32;;;17.90;99.90;;;;;;5093508;28;20490;-67
2023/05/24 08:22:38;;;;;;;8.73;8.02;;;18.00;99.90;;;;;;5094072;28;20039;-62
2023/05/24 08:25:05;;;;;;;9.05;8.20;;;18.20;99.90;;;;;;5093229;28;20099;-63
2023/05/24 08:27:31;;;;;;;10.45;8.20;;;18.20;99.90;;;;;;5093481;28;20028;-63
2023/05/24 08:29:57;;;;;;;9.88;8.88;;;18.10;99.90;;;;;;5093390;28;20513;-63
2023/05/24 08:32:23;;;;;;;10.82;9.15;;;18.20;99.90;;;;;;5093608;28;20028;-63
2023/05/24 08:34:49;;;;;;;9.05;8.02;;;18.20;99.90;;;;;;5093016;28;20016;-62
2023/05/24 08:37:18;;;;;;;10.77;8.82;;;18.30;99.90;;;;;;5093336;28;20063;-62
2023/05/24 08:39:44;;;;;;;9.52;8.63;;;18.30;99.90;;;;;;5093625;28;20028;-63
2023/05/24 08:42:10;;;;;;;9.32;8.43;;;18.40;99.90;;;;;;5093302;28;20493;-63
2023/05/24 08:44:46;;;;;;;9.80;8.57;;;18.50;99.90;;;;;;5093228;28;20060;-62
2023/05/24 08:47:12;;;;;;;10.18;9.18;;;18.50;99.90;;;;;;5093105;28;20020;-62
2023/05/24 08:49:39;;;;;;;10.13;9.10;;;18.50;99.90;;;;;;5092706;28;20074;-63
2023/05/24 08:52:06;;;;;;;9.90;8.85;;;18.50;99.90;;;;;;5093428;28;20032;-62
2023/05/24 08:54:35;;;;;;;9.80;8.90;;;18.60;99.90;;;;;;5093013;28;20055;-62
2023/05/24 08:57:01;;;;;;;9.52;8.63;;;18.60;99.90;;;;;;5092893;28;20036;-62
2023/05/24 08:59:27;;;;;;;9.77;8.88;;;18.70;99.90;;;;;;5092926;28;20020;-62
2023/05/24 09:01:53;;;;;;;10.80;9.70;;;18.80;99.90;;;;;;5093116;28;20062;-62
2023/05/24 09:04:21;;;;;;;10.73;9.50;;;18.80;99.90;;;;;;5092433;28;20020;-63
2023/05/24 09:06:47;;;;;;;9.93;8.90;;;18.80;99.90;;;;;;5092828;28;20107;-62
2023/05/24 09:09:17;;;;;;;10.00;8.50;;;18.90;99.90;;;;;;5092755;28;20058;-62
2023/05/24 09:11:46;;;;;;;9.40;8.50;;;19.00;99.90;;;;;;5092552;28;20410;-63
2023/05/24 09:14:13;;;;;;;9.75;8.75;;;19.10;99.90;;;;;;5092797;28;20022;-63
2023/05/24 09:16:38;;;;;;;10.48;9.25;;;19.20;99.90;;;;;;5092887;28;20452;-62
2023/05/24 09:19:04;;;;;;;10.07;8.77;;;19.20;99.90;;;;;;5092234;28;20077;-63
2023/05/24 09:21:31;;;;;;;9.80;8.80;;;19.20;99.90;;;;;;5092407;28;20116;-62
2023/05/24 09:23:58;;;;;;;9.73;8.73;;;19.20;99.90;;;;;;5092599;28;20020;-62
2023/05/24 09:26:25;;;;;;;9.65;8.65;;;19.30;99.90;;;;;;5092738;28;20032;-62
2023/05/24 09:28:54;;;;;;;9.00;8.10;;;19.50;99.90;;;;;;5092293;28;20034;-62
2023/05/24 09:31:32;;;;;;;9.98;8.98;;;19.50;99.90;;;;;;5092067;28;20494;-62
2023/05/24 09:33:57;;;;;;;10.10;8.70;;;19.60;99.90;;;;;;5091956;28;20065;-63
2023/05/24 09:36:23;;;;;;;12.00;8.68;;;19.50;99.90;;;;;;5092078;28;20044;-62
2023/05/24 09:39:03;;;;;;;13.10;8.80;;;19.60;99.90;;;;;;5092219;28;20028;-62
2023/05/24 09:41:29;;;;;;;9.80;8.55;;;19.50;99.90;;;;;;5092112;28;20028;-62
2023/05/24 09:43:55;;;;;;;11.40;8.70;;;19.70;99.90;;;;;;5092059;28;20084;-63
2023/05/24 09:46:21;;;;;;;10.30;8.88;;;19.80;99.90;;;;;;5092299;28;20487;-63
2023/05/24 09:48:57;;;;;;;9.38;8.48;;;19.90;99.90;;;;;;5091689;28;20024;-62
2023/05/24 09:51:23;;;;;;;9.82;8.93;;;19.90;99.90;;;;;;5092118;28;20110;-63
2023/05/24 09:53:51;;;;;;;9.57;8.68;;;19.90;99.90;;;;;;5091998;28;20504;-62
2023/05/24 09:56:17;;;;;;;9.82;8.80;;;19.90;99.90;;;;;;5092132;28;20031;-63
2023/05/24 09:58:44;;;;;;;10.30;8.90;;;19.90;99.90;;;;;;5092124;28;20020;-63
2023/05/24 10:01:11;;;;;;;11.20;9.10;;;20.00;99.90;;;;;;5091675;28;20031;-63
2023/05/24 10:03:37;;;;;;;10.35;8.90;;;20.10;99.90;;;;;;5091412;28;20039;-62
2023/05/24 10:06:10;;;;;;;10.38;9.38;;;20.30;99.90;;;;;;5091665;28;20108;-62
2023/05/24 10:08:35;;;;;;;9.48;8.57;;;20.20;99.90;;;;;;5091805;28;20024;-62
2023/05/24 10:11:03;;;;;;;10.88;8.93;;;20.20;99.90;;;;;;5091441;28;20055;-63
2023/05/24 10:13:30;;;;;;;10.50;9.60;;;20.30;99.90;;;;;;5091861;28;20443;-63
2023/05/24 10:15:56;;;;;;;10.43;9.43;;;20.30;99.90;;;;;;5091483;28;20077;-63
2023/05/24 10:18:22;;;;;;;12.13;9.32;;;20.40;99.90;;;;;;5091165;28;20024;-63
2023/05/24 10:20:49;;;;;;;9.70;8.80;;;20.50;99.90;;;;;;5091628;28;20036;-63
2023/05/24 10:23:20;;;;;;;9.80;8.80;;;20.60;99.90;;;;;;5090278;28;20390;-62
2023/05/24 10:25:54;;;;;;;10.43;9.00;;;20.80;99.90;;;;;;5091592;28;20078;-63
2023/05/24 10:28:22;;;;;;;9.32;8.43;;;21.00;99.90;;;;;;5091431;28;20032;-63
2023/05/24 10:31:21;;;;;;;11.00;8.60;;;20.90;99.90;;;;;;5090739;28;20097;-62
2023/05/24 10:33:47;;;;;;;8.98;8.10;;;20.90;99.90;;;;;;5086924;28;20028;-63
2023/05/24 10:36:17;;;;;;;10.35;9.15;;;21.00;99.90;;;;;;5091532;28;20105;-62
2023/05/24 10:38:45;;;;;;;10.02;8.98;;;21.00;99.90;;;;;;5091291;28;20024;-62
2023/05/24 10:41:12;;;;;;;11.55;8.48;;;21.00;99.90;;;;;;5091251;28;20024;-62
2023/05/24 10:43:38;;;;;;;10.10;9.10;;;21.10;99.90;;;;;;5091175;28;20021;-62
2023/05/24 10:46:07;;;;;;;9.45;8.60;;;21.10;99.90;;;;;;5090909;28;20028;-62
2023/05/24 10:48:42;;;;;;;10.10;8.90;;;21.20;99.90;;;;;;5091300;28;20407;-63
2023/05/24 10:51:39;;;;;;;10.30;9.27;;;21.30;99.90;;;;;;5091028;28;20039;-62
2023/05/24 10:54:16;;;;;;;9.68;8.77;;;21.40;99.90;;;;;;5091234;28;20087;-63
2023/05/24 10:56:49;;;;;;;9.43;8.50;;;21.60;99.90;;;;;;5091252;28;20020;-62
2023/05/24 10:59:23;;;;;;;10.18;9.07;;;21.70;99.90;;;;;;5091155;28;20375;-62
2023/05/24 11:01:57;;;;;;;9.60;8.48;;;21.70;99.90;;;;;;5091162;28;20024;-63
2023/05/24 11:04:22;;;;;;;;;;;21.80;99.90;;;;;;5091709;28;20024;-63
2023/05/24 11:07:00;;;;;;;9.10;8.18;;;22.00;99.90;;;;;;5091118;28;19904;-63
2023/05/24 11:09:26;;;;;;;8.93;8.02;;;22.20;99.90;;;;;;5091424;28;20039;-62
2023/05/24 11:12:06;;;;;;;11.27;8.77;;;22.00;99.90;;;;;;5090919;28;20467;-63
2023/05/24 11:14:36;;;;;;;9.23;8.35;;;22.00;99.90;;;;;;5090682;28;20453;-63
2023/05/24 11:17:01;;;;;;;9.60;8.70;;;22.00;99.90;;;;;;5090951;28;20067;-63
2023/05/24 11:19:33;;;;;;;9.70;8.70;;;22.10;99.90;;;;;;5090944;28;20051;-63
2023/05/24 11:22:00;;;;;;;9.10;8.18;;;22.10;99.90;;;;;;5091277;28;20036;-62
2023/05/24 11:24:27;;;;;;;9.30;8.20;;;22.10;99.90;;;;;;5090847;28;20036;-63
2023/05/24 11:26:53;;;;;;;9.45;8.30;;;22.10;99.90;;;;;;5090782;28;20399;-63
2023/05/24 11:29:21;;;;;;;9.90;8.90;;;22.10;99.90;;;;;;5090791;28;20040;-63
2023/05/24 11:32:03;;;;;;;9.82;8.85;;;22.20;99.90;;;;;;5090472;28;20079;-63
2023/05/24 11:34:30;;;;;;;9.85;8.30;;;22.20;99.90;;;;;;5090688;28;20119;-63
2023/05/24 11:36:58;;;;;;;10.95;8.35;;;22.30;99.90;;;;;;5093517;28;20048;-62
2023/05/24 11:39:27;;;;;;;10.75;8.05;;;22.20;99.90;;;;;;5094519;28;20487;-63
2023/05/24 11:41:53;;;;;;;13.27;8.30;;;22.20;99.90;;;;;;5094292;28;20016;-63
2023/05/24 11:44:20;;;;;;;11.40;7.97;;;22.00;99.90;;;;;;5094483;28;20039;-62
2023/05/24 11:46:45;;;;;;;10.32;8.10;;;22.10;99.90;;;;;;5094392;28;20024;-63
2023/05/24 11:49:15;;;;;;;11.25;7.97;;;22.10;99.90;;;;;;5094301;28;20137;-63
2023/05/24 11:51:42;;;;;;;12.07;7.80;;;22.10;99.90;;;;;;5094335;28;20123;-63
2023/05/24 11:54:08;;;;;;;10.45;7.43;;;22.00;99.90;;;;;;5094358;28;20420;-62
2023/05/24 11:56:34;;;;;;;13.90;7.97;;;22.10;99.90;;;;;;5094137;28;20057;-62
2023/05/24 11:59:10;;;;;;;13.10;8.40;;;22.00;99.90;;;;;;5093761;28;20054;-62
2023/05/24 12:01:36;;;;;;;13.05;7.93;;;21.90;99.90;;;;;;5093997;28;20020;-62
2023/05/24 12:04:05;;;;;;;11.38;7.80;;;21.90;99.90;;;;;;5094110;28;20505;-62
2023/05/24 12:06:41;;;;;;;12.45;8.13;;;21.90;99.90;;;;;;5093976;28;20016;-62
2023/05/24 12:09:15;;;;;;;11.57;7.72;;;21.90;99.90;;;;;;5093863;28;20027;-62
2023/05/24 12:11:42;;;;;;;9.18;7.80;;;21.90;99.90;;;;;;5093662;28;20545;-62
2023/05/24 12:14:18;;;;;;;10.63;7.38;;;21.90;99.90;;;;;;5093878;28;20036;-62
2023/05/24 12:16:45;;;;;;;10.38;7.20;;;21.90;99.90;;;;;;5093854;28;20050;-62
2023/05/24 12:19:18;;;;;;;10.25;7.47;;;21.80;99.90;;;;;;5092461;28;20379;-62
2023/05/24 12:21:46;;;;;;;12.07;7.60;;;21.60;99.90;;;;;;5094072;28;20020;-62
2023/05/24 12:24:15;;;;;;;13.05;7.22;;;21.70;99.90;;;;;;5093689;28;20039;-62
2023/05/24 12:26:46;;;;;;;11.23;7.55;;;21.60;99.90;;;;;;5093237;28;20076;-63
2023/05/24 12:29:12;;;;;;;8.82;7.10;;;21.50;99.90;;;;;;5093636;28;20521;-62
2023/05/24 12:31:43;;;;;;;9.50;6.82;;;21.60;99.90;;;;;;5093303;28;20032;-62
2023/05/24 12:34:17;;;;;;;8.10;6.97;;;21.80;99.90;;;;;;5093366;28;20028;-62
2023/05/24 12:36:43;;;;;;;9.57;6.50;;;21.80;99.90;;;;;;5093295;28;20158;-62